Time;durP1;ratioP1;P1;durP2;ratioP2;P2;SDS_P1;SDS_P2;PMS_P1;PMS_P2;Temp;Humidity;BMP_temperature;BMP_pressure;BME280_temperature;BME280_humidity;BME280_pressure;Samples;Min_cycle;Max_cycle;Signal;HPM_P1;HPM_P2
2021/03/13 00:00:13;;;;;;;11.00;6.28;;;7.80;97.50;;;;;;4807596;29;20141;-81
2021/03/13 00:02:44;;;;;;;17.20;7.35;;;7.90;97.60;;;;;;4810188;29;20023;-81
2021/03/13 00:05:16;;;;;;;14.38;7.28;;;7.80;97.60;;;;;;4791951;29;20069;-81
2021/03/13 00:07:43;;;;;;;11.73;6.45;;;7.80;97.60;;;;;;4808156;29;20236;-81
2021/03/13 00:10:09;;;;;;;17.17;7.32;;;7.90;97.40;;;;;;4807873;29;20084;-81
2021/03/13 00:12:35;;;;;;;20.42;6.97;;;7.90;97.50;;;;;;4807710;29;20045;-82
2021/03/13 00:15:00;;;;;;;20.02;7.63;;;7.90;97.50;;;;;;4806908;29;20039;-82
2021/03/13 00:17:26;;;;;;;18.52;7.55;;;7.90;97.50;;;;;;4804932;29;20087;-81
2021/03/13 00:19:53;;;;;;;14.52;6.78;;;7.90;97.70;;;;;;4805155;29;20814;-80
2021/03/13 00:22:18;;;;;;;17.95;7.18;;;7.90;97.50;;;;;;4804909;29;20490;-81
2021/03/13 00:24:44;;;;;;;14.02;6.68;;;7.90;97.50;;;;;;4804807;29;20365;-81
2021/03/13 00:27:09;;;;;;;22.92;6.90;;;7.90;97.50;;;;;;4804522;29;20050;-80
2021/03/13 00:29:35;;;;;;;15.77;7.18;;;7.90;97.60;;;;;;4806360;29;20035;-81
2021/03/13 00:32:01;;;;;;;13.45;6.38;;;7.90;97.50;;;;;;4804962;29;20145;-81
2021/03/13 00:34:27;;;;;;;16.52;6.35;;;7.90;97.40;;;;;;4804887;29;20378;-81
2021/03/13 00:36:52;;;;;;;12.38;5.80;;;8.00;97.30;;;;;;4804609;29;20055;-82
2021/03/13 00:39:18;;;;;;;17.85;6.60;;;8.00;97.20;;;;;;4804038;29;20030;-81
2021/03/13 00:41:44;;;;;;;12.38;5.40;;;8.00;97.30;;;;;;4805201;29;20059;-82
2021/03/13 00:44:09;;;;;;;16.30;6.47;;;8.00;97.30;;;;;;4803656;29;20525;-80
2021/03/13 00:46:36;;;;;;;12.18;5.57;;;8.00;97.20;;;;;;4804453;29;20111;-82
2021/03/13 00:49:06;;;;;;;12.25;5.45;;;8.00;97.20;;;;;;4804669;29;20082;-81
2021/03/13 00:51:32;;;;;;;13.75;5.30;;;7.90;97.20;;;;;;4804395;29;20047;-80
2021/03/13 00:53:57;;;;;;;17.40;5.95;;;8.00;97.20;;;;;;4805992;29;20084;-79
2021/03/13 00:56:23;;;;;;;13.18;5.60;;;8.00;97.20;;;;;;4804626;29;20042;-81
2021/03/13 00:58:48;;;;;;;17.08;5.38;;;8.10;97.00;;;;;;4804070;29;20039;-82
2021/03/13 01:01:14;;;;;;;14.52;5.95;;;8.10;97.00;;;;;;4804503;29;20046;-81
2021/03/13 01:03:40;;;;;;;17.20;6.30;;;8.10;97.00;;;;;;4804201;29;20185;-82
2021/03/13 01:06:05;;;;;;;13.95;5.10;;;8.00;97.00;;;;;;4805882;29;20039;-81
2021/03/13 01:08:31;;;;;;;12.88;4.85;;;8.00;97.00;;;;;;4804258;29;20700;-81
2021/03/13 01:10:57;;;;;;;15.18;5.68;;;8.00;96.90;;;;;;4804000;29;20047;-81
2021/03/13 01:13:23;;;;;;;16.10;5.45;;;8.10;96.80;;;;;;4803834;29;20058;-82
2021/03/13 01:15:49;;;;;;;16.98;4.95;;;8.00;97.00;;;;;;4803622;29;20039;-81
2021/03/13 01:18:18;;;;;;;16.75;5.18;;;8.10;96.90;;;;;;4803729;29;20770;-80
2021/03/13 01:20:44;;;;;;;11.70;5.20;;;8.10;97.00;;;;;;4805447;29;20366;-82
2021/03/13 01:23:09;;;;;;;22.23;5.65;;;8.10;96.90;;;;;;4803739;29;20046;-80
2021/03/13 01:25:35;;;;;;;11.27;4.28;;;8.10;96.90;;;;;;4803913;29;20497;-80
2021/03/13 01:28:01;;;;;;;13.43;4.32;;;8.10;96.90;;;;;;4803674;29;20042;-80
2021/03/13 01:30:26;;;;;;;16.63;4.93;;;8.10;96.90;;;;;;4803445;29;20102;-80
2021/03/13 01:32:53;;;;;;;15.38;4.50;;;8.10;97.00;;;;;;4805174;29;20047;-79
2021/03/13 01:35:20;;;;;;;16.17;4.38;;;8.20;96.90;;;;;;4787862;29;20043;-80
2021/03/13 01:37:46;;;;;;;9.15;4.07;;;8.10;96.80;;;;;;4787627;29;20035;-78
2021/03/13 01:40:16;;;;;;;9.13;4.30;;;8.10;96.80;;;;;;4803783;29;20050;-81
2021/03/13 01:42:44;;;;;;;11.82;4.57;;;8.10;96.90;;;;;;4803507;29;20378;-80
2021/03/13 01:45:11;;;;;;;15.18;4.55;;;8.10;96.90;;;;;;4803643;29;20031;-82
2021/03/13 01:47:37;;;;;;;13.40;4.40;;;8.10;96.90;;;;;;4789161;29;20030;-84
2021/03/13 01:50:06;;;;;;;11.40;4.63;;;8.10;96.90;;;;;;4803651;29;20039;-82
2021/03/13 01:52:33;;;;;;;12.38;4.65;;;8.20;96.90;;;;;;4803395;29;20055;-82
2021/03/13 01:54:59;;;;;;;9.60;4.35;;;8.10;96.90;;;;;;4803255;29;20489;-81
2021/03/13 01:57:27;;;;;;;7.95;3.88;;;8.00;97.00;;;;;;4786999;29;20039;-82
2021/03/13 01:59:52;;;;;;;15.30;4.55;;;8.10;96.90;;;;;;4805360;29;20031;-81
2021/03/13 02:02:18;;;;;;;10.05;4.05;;;8.20;96.80;;;;;;4803101;29;20093;-82
2021/03/13 02:04:44;;;;;;;14.05;4.05;;;8.20;96.70;;;;;;4806315;29;20070;-81
2021/03/13 02:07:25;;;;;;;7.15;3.65;;;8.10;96.80;;;;;;4803850;29;20051;-80
2021/03/13 02:10:06;;;;;;;10.73;3.97;;;8.20;96.80;;;;;;4803774;29;20065;-82
2021/03/13 02:13:11;;;;;;;11.50;3.60;;;8.20;96.70;;;;;;4787365;29;20039;-81
2021/03/13 02:16:09;;;;;;;8.52;3.55;;;8.10;96.70;;;;;;4787394;29;20470;-80
2021/03/13 02:19:08;;;;;;;9.93;2.92;;;8.10;96.70;;;;;;4803045;29;20059;-80
2021/03/13 02:21:47;;;;;;;8.55;3.63;;;8.10;96.70;;;;;;4791505;29;20053;-81
2021/03/13 02:24:27;;;;;;;7.90;3.25;;;8.10;96.80;;;;;;4787521;29;20134;-80
2021/03/13 02:27:10;;;;;;;9.40;3.17;;;8.10;96.80;;;;;;4788606;29;20122;-80
2021/03/13 02:30:05;;;;;;;15.65;3.50;;;8.20;96.90;;;;;;4803084;29;20122;-81
2021/03/13 02:32:46;;;;;;;7.13;3.08;;;8.20;96.70;;;;;;4799295;29;20432;-81
2021/03/13 02:35:21;;;;;;;9.43;2.90;;;8.20;96.70;;;;;;4805828;29;20238;-81
2021/03/13 02:37:51;;;;;;;14.50;2.80;;;8.20;96.60;;;;;;4820607;29;20066;-81
2021/03/13 02:40:21;;;;;;;12.77;2.90;;;8.20;96.60;;;;;;4804925;29;20049;-81
2021/03/13 02:42:55;;;;;;;12.73;2.97;;;8.20;96.50;;;;;;4821095;29;20039;-83
2021/03/13 02:45:24;;;;;;;7.75;3.05;;;8.20;96.60;;;;;;4820807;29;20042;-82
2021/03/13 02:47:52;;;;;;;6.63;2.85;;;8.20;96.60;;;;;;4822710;29;20086;-82
2021/03/13 02:50:18;;;;;;;10.80;3.10;;;8.20;96.60;;;;;;4804717;29;20042;-81
2021/03/13 02:52:44;;;;;;;6.40;2.95;;;8.20;96.60;;;;;;4820802;29;20575;-81
2021/03/13 02:55:14;;;;;;;5.47;2.72;;;8.20;96.60;;;;;;4820977;29;20053;-80
2021/03/13 02:57:42;;;;;;;10.32;2.67;;;8.30;96.60;;;;;;4820587;29;20046;-81
2021/03/13 03:00:09;;;;;;;9.13;2.70;;;8.20;96.60;;;;;;4805897;29;20049;-80
2021/03/13 03:02:38;;;;;;;10.82;2.95;;;8.30;96.60;;;;;;4821182;29;20142;-81
2021/03/13 03:05:05;;;;;;;9.50;3.05;;;8.30;96.50;;;;;;4820467;29;20123;-80
2021/03/13 03:07:32;;;;;;;8.43;2.63;;;8.30;96.60;;;;;;4820590;29;20070;-81
2021/03/13 03:09:59;;;;;;;11.93;2.75;;;8.30;96.40;;;;;;4820739;29;20039;-80
2021/03/13 03:12:25;;;;;;;7.40;2.20;;;8.40;96.50;;;;;;4820076;29;20350;-80
2021/03/13 03:14:52;;;;;;;6.18;2.45;;;8.40;96.40;;;;;;4822297;29;20063;-81
2021/03/13 03:17:19;;;;;;;7.13;2.55;;;8.40;96.30;;;;;;4804530;29;20127;-82
2021/03/13 03:19:47;;;;;;;6.80;2.65;;;8.40;96.30;;;;;;4820506;29;20102;-80
2021/03/13 03:22:14;;;;;;;7.18;2.22;;;8.40;96.60;;;;;;4820379;29;20039;-82
2021/03/13 03:24:41;;;;;;;7.38;2.30;;;8.50;96.40;;;;;;4820886;29;20519;-82
2021/03/13 03:27:07;;;;;;;14.45;2.75;;;8.30;96.30;;;;;;4805845;29;20518;-82
2021/03/13 03:29:34;;;;;;;9.38;2.55;;;8.40;96.30;;;;;;4820489;29;20236;-80
2021/03/13 03:31:59;;;;;;;10.60;2.50;;;8.30;96.30;;;;;;4804470;29;20039;-84
2021/03/13 03:34:25;;;;;;;16.25;2.53;;;8.40;96.40;;;;;;4804390;29;20406;-83
2021/03/13 03:36:52;;;;;;;4.57;2.25;;;8.40;96.30;;;;;;4803925;29;20050;-83
2021/03/13 03:39:18;;;;;;;8.45;2.60;;;8.40;96.30;;;;;;4820169;29;20023;-83
2021/03/13 03:41:48;;;;;;;6.75;2.38;;;8.40;96.30;;;;;;4822065;29;20037;-82
2021/03/13 03:44:19;;;;;;;7.60;1.92;;;8.40;96.20;;;;;;4820538;29;20039;-82
2021/03/13 03:46:47;;;;;;;9.75;2.58;;;8.40;96.30;;;;;;4820120;29;20038;-82
2021/03/13 03:49:14;;;;;;;6.78;1.90;;;8.40;96.30;;;;;;4804620;29;20042;-82
2021/03/13 03:51:41;;;;;;;7.85;2.00;;;8.50;96.30;;;;;;4807599;29;20050;-82
2021/03/13 03:54:11;;;;;;;9.68;1.80;;;8.50;96.20;;;;;;4825193;29;20035;-84
2021/03/13 03:56:43;;;;;;;12.10;2.35;;;8.50;96.30;;;;;;4807702;29;20384;-81
2021/03/13 03:59:17;;;;;;;8.80;2.17;;;8.50;96.20;;;;;;4822947;29;20052;-82
2021/03/13 04:01:49;;;;;;;8.43;2.30;;;8.50;96.10;;;;;;4823246;29;20097;-82
2021/03/13 04:04:25;;;;;;;12.77;2.05;;;8.50;96.10;;;;;;4823185;29;20500;-80
2021/03/13 04:06:52;;;;;;;11.98;2.08;;;8.50;96.10;;;;;;4823306;29;20061;-81
2021/03/13 04:09:20;;;;;;;15.52;2.00;;;8.50;96.10;;;;;;4807401;29;20156;-81
2021/03/13 04:11:47;;;;;;;7.75;1.75;;;8.50;96.00;;;;;;4824944;29;20034;-80
2021/03/13 04:14:13;;;;;;;9.68;1.77;;;8.50;95.90;;;;;;4806989;29;20690;-82
2021/03/13 04:16:39;;;;;;;10.52;2.40;;;8.50;96.00;;;;;;4823036;29;20073;-81
2021/03/13 04:19:05;;;;;;;8.70;1.67;;;8.60;96.00;;;;;;4822812;29;20111;-81
2021/03/13 04:21:31;;;;;;;7.32;2.00;;;8.60;96.00;;;;;;4823258;29;20042;-80
2021/03/13 04:23:58;;;;;;;10.45;2.03;;;8.60;96.00;;;;;;4824535;29;20030;-81
2021/03/13 04:26:25;;;;;;;9.65;1.83;;;8.60;96.00;;;;;;4822847;29;20039;-81
2021/03/13 04:28:51;;;;;;;10.73;1.83;;;8.50;96.00;;;;;;4822835;29;20129;-81
2021/03/13 04:31:22;;;;;;;11.38;1.75;;;8.60;96.00;;;;;;4823399;29;20046;-81
2021/03/13 04:33:49;;;;;;;8.73;1.75;;;8.60;95.90;;;;;;4823356;29;20050;-83
2021/03/13 04:36:15;;;;;;;6.68;1.65;;;8.60;95.90;;;;;;4823004;29;20098;-83
2021/03/13 04:38:43;;;;;;;5.38;1.50;;;8.60;96.00;;;;;;4824541;29;20034;-82
2021/03/13 04:41:10;;;;;;;6.20;1.38;;;8.50;95.90;;;;;;4806970;29;20090;-81
2021/03/13 04:43:37;;;;;;;6.05;1.25;;;8.50;96.00;;;;;;4823040;29;20125;-80
2021/03/13 04:46:03;;;;;;;5.38;1.30;;;8.60;96.00;;;;;;4822655;29;20042;-83
2021/03/13 04:48:31;;;;;;;8.10;1.73;;;8.50;96.00;;;;;;4806043;29;20244;-81
2021/03/13 04:51:02;;;;;;;4.90;0.85;;;8.50;95.90;;;;;;4808418;29;20027;-82
2021/03/13 04:53:29;;;;;;;7.50;1.20;;;8.50;96.10;;;;;;4822943;29;20039;-82
2021/03/13 04:55:55;;;;;;;5.93;1.60;;;8.50;96.10;;;;;;4822569;29;20047;-81
2021/03/13 04:58:21;;;;;;;4.22;1.05;;;8.50;96.30;;;;;;4822435;29;20110;-82
2021/03/13 05:00:47;;;;;;;6.28;1.10;;;8.40;96.50;;;;;;4822437;29;20042;-83
2021/03/13 05:03:14;;;;;;;7.15;1.25;;;8.40;96.80;;;;;;4823286;29;20038;-83
2021/03/13 05:05:39;;;;;;;4.50;1.25;;;8.40;97.10;;;;;;4828964;29;20054;-82
2021/03/13 05:08:05;;;;;;;7.30;1.33;;;8.40;97.20;;;;;;4823520;29;20047;-84
2021/03/13 05:10:31;;;;;;;8.48;1.10;;;8.30;97.30;;;;;;4822895;29;20362;-82
2021/03/13 05:12:56;;;;;;;4.93;0.98;;;8.30;97.40;;;;;;4806459;29;20086;-83
2021/03/13 05:15:23;;;;;;;4.95;0.82;;;8.30;97.70;;;;;;4822427;29;20030;-82
2021/03/13 05:17:51;;;;;;;3.67;0.90;;;8.30;97.70;;;;;;4823632;29;20033;-82
2021/03/13 05:20:18;;;;;;;5.93;1.00;;;8.20;97.80;;;;;;4806517;29;20371;-81
2021/03/13 05:22:49;;;;;;;2.67;0.90;;;8.20;98.00;;;;;;4822352;29;20047;-83
2021/03/13 05:25:15;;;;;;;1.83;0.75;;;8.20;98.10;;;;;;4806082;29;20062;-81
2021/03/13 05:27:41;;;;;;;3.60;0.77;;;8.10;98.20;;;;;;4822308;29;20035;-82
2021/03/13 05:30:09;;;;;;;3.53;0.80;;;8.10;98.40;;;;;;4807681;29;20042;-84
2021/03/13 05:32:35;;;;;;;2.03;0.93;;;8.10;98.40;;;;;;4822823;29;20045;-83
2021/03/13 05:35:01;;;;;;;3.67;1.25;;;8.10;98.40;;;;;;4805647;29;20038;-83
2021/03/13 05:37:28;;;;;;;5.40;1.02;;;8.00;98.60;;;;;;4805804;29;20049;-82
2021/03/13 05:39:54;;;;;;;2.20;1.00;;;8.00;98.70;;;;;;4821780;29;20099;-82
2021/03/13 05:42:21;;;;;;;1.60;0.80;;;8.00;98.60;;;;;;4821939;29;20026;-83
2021/03/13 05:44:47;;;;;;;2.85;1.23;;;8.00;98.60;;;;;;4823443;29;20514;-83
2021/03/13 05:47:13;;;;;;;2.22;0.70;;;8.00;98.70;;;;;;4821917;29;20050;-83
2021/03/13 05:49:42;;;;;;;1.73;0.70;;;7.90;98.80;;;;;;4821753;29;20519;-83
2021/03/13 05:52:08;;;;;;;2.08;0.90;;;7.90;98.90;;;;;;4805616;29;20374;-81
2021/03/13 05:54:34;;;;;;;1.42;1.00;;;7.90;98.90;;;;;;4822273;29;20030;-85
2021/03/13 05:57:01;;;;;;;3.55;0.90;;;7.80;98.90;;;;;;4808252;29;20382;-84
2021/03/13 05:59:28;;;;;;;1.75;0.90;;;7.90;99.20;;;;;;4823926;29;20042;-85
2021/03/13 06:01:53;;;;;;;2.25;1.30;;;8.00;98.90;;;;;;4824342;29;20042;-85
2021/03/13 06:04:19;;;;;;;2.13;0.82;;;7.90;98.90;;;;;;4826487;29;20497;-84
2021/03/13 06:06:48;;;;;;;1.35;0.90;;;7.90;99.00;;;;;;4825367;29;20356;-82
2021/03/13 06:09:13;;;;;;;3.63;0.98;;;7.90;99.00;;;;;;4805464;29;20379;-82
2021/03/13 06:11:39;;;;;;;2.15;0.70;;;7.90;99.10;;;;;;4822895;29;20043;-82
2021/03/13 06:14:04;;;;;;;3.13;1.52;;;7.90;99.30;;;;;;4821130;29;20492;-84
2021/03/13 06:16:33;;;;;;;2.97;1.08;;;7.90;99.40;;;;;;4821829;29;20723;-80
2021/03/13 06:18:59;;;;;;;1.65;1.10;;;7.80;99.40;;;;;;4810929;29;20127;-78
2021/03/13 06:21:25;;;;;;;2.08;1.15;;;7.80;99.50;;;;;;4802723;29;20460;-79
2021/03/13 06:24:01;;;;;;;3.38;1.00;;;7.90;99.50;;;;;;4804745;29;20110;-81
2021/03/13 06:26:29;;;;;;;2.55;0.90;;;7.90;99.50;;;;;;4802961;29;20046;-82
2021/03/13 06:28:56;;;;;;;2.38;0.80;;;7.90;99.60;;;;;;4802262;29;20050;-80
2021/03/13 06:31:26;;;;;;;1.40;0.90;;;7.80;99.60;;;;;;4802840;29;20063;-78
2021/03/13 06:33:53;;;;;;;1.80;1.10;;;7.80;99.80;;;;;;4786420;29;20046;-78
2021/03/13 06:36:24;;;;;;;1.10;0.98;;;7.80;99.70;;;;;;4786859;29;20034;-81
2021/03/13 06:38:51;;;;;;;3.15;1.00;;;7.90;99.80;;;;;;4804088;29;20458;-79
2021/03/13 06:41:25;;;;;;;2.40;1.40;;;7.90;99.80;;;;;;4802356;29;20548;-79
2021/03/13 06:43:53;;;;;;;3.80;2.08;;;7.90;99.90;;;;;;4802539;29;20042;-82
2021/03/13 06:46:21;;;;;;;4.00;1.48;;;7.90;99.90;;;;;;4786737;29;20274;-78
2021/03/13 06:48:49;;;;;;;3.85;1.58;;;7.80;99.90;;;;;;4786827;29;20048;-81
2021/03/13 06:51:26;;;;;;;4.00;2.20;;;7.90;99.90;;;;;;4802581;29;20057;-79
2021/03/13 06:54:16;;;;;;;4.88;1.17;;;7.90;99.90;;;;;;4804826;29;20303;-76
2021/03/13 06:56:46;;;;;;;0.70;0.70;;;7.90;99.90;;;;;;4806531;29;20478;-77
2021/03/13 06:59:36;;;;;;;1.45;0.95;;;7.90;99.90;;;;;;4822724;29;20510;-79
2021/03/13 07:02:05;;;;;;;2.58;0.90;;;7.90;99.90;;;;;;4822438;29;20061;-76
2021/03/13 07:04:42;;;;;;;2.97;0.60;;;7.90;99.90;;;;;;4822096;29;20068;-79
2021/03/13 07:07:09;;;;;;;1.20;0.63;;;7.90;99.90;;;;;;4806278;29;20042;-78
2021/03/13 07:09:54;;;;;;;1.38;0.90;;;7.90;99.90;;;;;;4821841;29;20042;-78
2021/03/13 07:12:27;;;;;;;1.33;0.55;;;7.90;99.90;;;;;;4821986;29;20062;-79
2021/03/13 07:14:54;;;;;;;0.70;0.45;;;7.90;99.90;;;;;;4807506;29;20554;-79
2021/03/13 07:17:21;;;;;;;0.88;0.47;;;7.90;99.90;;;;;;4821371;29;20130;-79
2021/03/13 07:19:47;;;;;;;2.25;0.60;;;7.90;99.90;;;;;;4821845;29;20053;-81
2021/03/13 07:22:13;;;;;;;1.33;0.57;;;7.90;99.90;;;;;;4805718;29;20042;-78
2021/03/13 07:24:43;;;;;;;4.30;2.08;;;8.00;99.80;;;;;;4823139;29;20042;-79
2021/03/13 07:27:12;;;;;;;2.13;1.02;;;8.00;99.90;;;;;;4826965;29;20022;-79
2021/03/13 07:29:44;;;;;;;5.45;1.20;;;7.90;99.90;;;;;;4810088;29;20042;-76
2021/03/13 07:32:15;;;;;;;0.63;0.40;;;8.00;99.90;;;;;;4825638;29;20112;-76
2021/03/13 07:34:42;;;;;;;0.98;0.60;;;7.90;99.90;;;;;;4825736;29;20103;-76
2021/03/13 07:37:15;;;;;;;0.40;0.38;;;7.90;99.90;;;;;;4809676;29;20354;-78
2021/03/13 07:39:42;;;;;;;3.50;0.40;;;8.00;99.80;;;;;;4825732;29;20426;-77
2021/03/13 07:42:19;;;;;;;0.52;0.30;;;8.00;99.70;;;;;;4829192;29;20023;-82
2021/03/13 07:44:46;;;;;;;1.00;0.50;;;8.00;99.70;;;;;;4829098;29;20045;-79
2021/03/13 07:47:16;;;;;;;0.50;0.50;;;8.00;99.70;;;;;;4826403;29;20110;-84
2021/03/13 07:49:42;;;;;;;1.85;0.60;;;8.10;99.60;;;;;;4825878;29;20042;-84
2021/03/13 07:52:10;;;;;;;1.10;0.40;;;8.10;99.50;;;;;;4809596;29;20042;-80
2021/03/13 07:54:46;;;;;;;1.75;0.73;;;8.10;99.50;;;;;;4808246;29;20038;-82
2021/03/13 07:57:12;;;;;;;0.80;0.30;;;8.10;99.50;;;;;;4826008;29;20106;-85
2021/03/13 07:59:51;;;;;;;1.15;0.40;;;8.10;99.50;;;;;;4828012;29;20022;-84
2021/03/13 08:02:29;;;;;;;1.58;0.50;;;8.20;99.50;;;;;;4824866;29;20141;-86
2021/03/13 08:04:58;;;;;;;0.20;0.20;;;8.20;99.50;;;;;;4825020;29;20054;-78
2021/03/13 08:07:29;;;;;;;0.30;0.20;;;8.30;99.50;;;;;;4825044;29;20038;-78
2021/03/13 08:09:55;;;;;;;1.88;0.65;;;8.30;99.40;;;;;;4825257;29;20078;-75
2021/03/13 08:12:41;;;;;;;0.50;0.35;;;8.40;99.50;;;;;;4824803;29;20030;-77
2021/03/13 08:15:29;;;;;;;3.63;0.85;;;8.40;99.50;;;;;;4810238;29;20366;-80
2021/03/13 08:17:55;;;;;;;0.70;0.28;;;8.50;99.70;;;;;;4824803;29;20039;-82
2021/03/13 08:20:28;;;;;;;0.30;0.30;;;8.50;99.50;;;;;;4824638;29;20058;-75
2021/03/13 08:23:15;;;;;;;0.88;0.43;;;8.50;99.20;;;;;;4824330;29;20039;-80
2021/03/13 08:25:58;;;;;;;0.60;0.35;;;8.60;99.40;;;;;;4825857;29;20050;-91
2021/03/13 08:28:48;;;;;;;0.20;0.20;;;8.60;99.40;;;;;;4809576;29;20369;-81
2021/03/13 08:33:50;;;;;;;1.50;0.30;;;8.80;99.30;;;;;;4824338;29;20033;-82
2021/03/13 08:36:17;;;;;;;0.50;0.35;;;8.90;99.10;;;;;;4823366;29;20175;-79
2021/03/13 08:38:55;;;;;;;0.52;0.40;;;8.90;98.90;;;;;;4809307;29;20124;-80
2021/03/13 08:41:42;;;;;;;;;;;;;;;;;;;;;
2021/03/13 08:44:12;;;;;;;1.85;0.35;;;9.10;98.70;;;;;;4824190;29;20102;-77
2021/03/13 08:46:53;;;;;;;0.17;0.17;;;9.10;98.40;;;;;;4824185;29;20130;-76
2021/03/13 08:49:24;;;;;;;0.20;0.15;;;9.20;98.40;;;;;;4807988;29;20049;-76
2021/03/13 08:52:10;;;;;;;1.58;0.17;;;9.10;98.20;;;;;;4824194;29;20087;-79
2021/03/13 08:54:44;;;;;;;1.15;0.47;;;9.20;98.40;;;;;;4808268;29;20042;-75
2021/03/13 08:57:11;;;;;;;0.70;0.30;;;9.20;98.50;;;;;;4823539;29;20041;-76
2021/03/13 08:59:39;;;;;;;0.40;0.20;;;9.30;98.30;;;;;;4825290;29;20556;-76
2021/03/13 09:02:14;;;;;;;0.40;0.20;;;9.20;98.20;;;;;;4823660;29;20580;-80
2021/03/13 09:04:47;;;;;;;5.25;0.28;;;9.30;98.50;;;;;;4823550;29;20066;-78
2021/03/13 09:07:13;;;;;;;0.30;0.20;;;9.30;98.40;;;;;;4823683;29;20046;-75
2021/03/13 09:09:41;;;;;;;0.73;0.28;;;9.40;98.30;;;;;;4823462;29;20062;-75
2021/03/13 09:12:10;;;;;;;0.22;0.22;;;9.50;98.30;;;;;;4807639;29;20060;-76
2021/03/13 09:14:42;;;;;;;3.42;0.30;;;9.60;98.20;;;;;;4822349;29;20042;-76
2021/03/13 09:17:09;;;;;;;1.00;0.30;;;9.70;98.10;;;;;;4821890;29;20082;-76
2021/03/13 09:19:35;;;;;;;0.20;0.20;;;9.80;97.70;;;;;;4821545;29;20477;-77
2021/03/13 09:22:09;;;;;;;1.33;0.40;;;9.80;97.60;;;;;;4822122;29;20038;-77
2021/03/13 09:24:35;;;;;;;0.28;0.28;;;9.90;97.80;;;;;;4805719;29;20030;-79
2021/03/13 09:27:02;;;;;;;0.50;0.35;;;9.90;97.70;;;;;;4823500;29;20023;-74
2021/03/13 09:29:29;;;;;;;0.45;0.43;;;9.90;97.90;;;;;;4805547;29;20129;-76
2021/03/13 09:32:03;;;;;;;3.15;0.25;;;9.90;97.80;;;;;;4821637;29;20042;-79
2021/03/13 09:34:32;;;;;;;3.00;0.20;;;9.70;98.20;;;;;;4805418;29;20098;-79
2021/03/13 09:36:57;;;;;;;2.22;0.13;;;9.70;98.30;;;;;;4821615;29;20042;-78
2021/03/13 09:39:26;;;;;;;2.33;0.32;;;9.60;98.90;;;;;;4821207;29;20086;-77
2021/03/13 09:42:12;;;;;;;1.17;0.30;;;9.60;99.30;;;;;;4822911;29;20030;-78
2021/03/13 09:44:39;;;;;;;2.10;0.65;;;9.50;99.70;;;;;;4805707;29;20065;-79
2021/03/13 09:47:13;;;;;;;0.47;0.22;;;9.50;99.60;;;;;;4821430;29;20102;-76
2021/03/13 09:49:39;;;;;;;0.82;0.30;;;9.40;99.00;;;;;;4822367;29;20520;-78
2021/03/13 09:52:05;;;;;;;0.30;0.30;;;9.40;99.00;;;;;;4805778;29;20054;-79
2021/03/13 09:54:30;;;;;;;1.65;0.50;;;9.40;99.20;;;;;;4821642;29;20046;-79
2021/03/13 09:56:56;;;;;;;1.42;0.25;;;9.40;98.90;;;;;;4823088;29;20049;-78
2021/03/13 09:59:22;;;;;;;0.43;0.28;;;9.40;99.00;;;;;;4804973;29;20506;-76
2021/03/13 10:01:48;;;;;;;2.15;0.30;;;9.40;99.10;;;;;;4821472;29;20082;-79
2021/03/13 10:04:13;;;;;;;0.52;0.30;;;9.60;99.20;;;;;;4821357;29;20067;-79
2021/03/13 10:06:41;;;;;;;0.73;0.30;;;9.60;98.20;;;;;;4804834;29;20079;-78
2021/03/13 10:09:11;;;;;;;0.77;0.25;;;9.70;98.30;;;;;;4806417;29;20034;-76
2021/03/13 10:11:41;;;;;;;4.20;0.50;;;9.60;97.90;;;;;;4805810;29;20118;-77
2021/03/13 10:14:21;;;;;;;0.70;0.40;;;9.70;97.90;;;;;;4821204;29;20042;-78
2021/03/13 10:16:47;;;;;;;2.03;0.50;;;9.70;97.40;;;;;;4821150;29;20030;-77
2021/03/13 10:19:42;;;;;;;2.08;0.75;;;9.70;97.30;;;;;;4821106;29;20567;-76
2021/03/13 10:22:10;;;;;;;4.88;1.33;;;9.90;96.50;;;;;;4820679;29;20072;-76
2021/03/13 10:24:43;;;;;;;2.60;0.80;;;9.90;96.00;;;;;;4820805;29;20039;-76
2021/03/13 10:27:09;;;;;;;3.65;1.10;;;9.90;95.60;;;;;;4820628;29;20450;-75
2021/03/13 10:29:35;;;;;;;3.25;0.90;;;9.80;95.20;;;;;;4802795;29;20057;-75
2021/03/13 10:32:02;;;;;;;8.07;1.17;;;9.80;95.30;;;;;;4806407;29;20053;-76
2021/03/13 10:34:36;;;;;;;6.38;1.40;;;9.80;95.50;;;;;;4822675;29;20053;-78
2021/03/13 10:37:02;;;;;;;6.07;1.08;;;10.00;94.80;;;;;;4805514;29;20047;-75
2021/03/13 10:39:27;;;;;;;5.47;1.52;;;10.00;94.50;;;;;;4822936;29;20045;-84
2021/03/13 10:42:00;;;;;;;4.88;1.25;;;10.10;94.20;;;;;;4808165;29;20038;-81
2021/03/13 10:44:26;;;;;;;11.55;2.45;;;10.10;93.90;;;;;;4821849;29;20114;-80
2021/03/13 10:46:52;;;;;;;56.80;10.45;;;10.10;94.10;;;;;;4822033;29;20042;-78
2021/03/13 10:49:27;;;;;;;18.88;3.00;;;10.10;94.40;;;;;;4821916;29;20355;-81
2021/03/13 10:51:53;;;;;;;23.15;4.55;;;10.10;94.60;;;;;;4806027;29;20073;-78
2021/03/13 10:54:30;;;;;;;70.10;10.48;;;10.20;94.50;;;;;;4822052;29;20121;-78
2021/03/13 10:56:57;;;;;;;11.45;1.50;;;10.30;94.50;;;;;;4823658;29;20109;-78
2021/03/13 10:59:33;;;;;;;21.87;3.50;;;10.30;94.30;;;;;;4805076;29;20115;-79
2021/03/13 11:01:59;;;;;;;33.95;6.68;;;10.40;94.40;;;;;;4805700;29;20191;-77
2021/03/13 11:04:24;;;;;;;14.23;3.17;;;10.40;93.70;;;;;;4821890;29;20166;-80
2021/03/13 11:06:55;;;;;;;7.80;1.55;;;10.40;93.60;;;;;;4822299;29;20373;-77
2021/03/13 11:09:24;;;;;;;3.78;0.93;;;10.50;93.40;;;;;;4807073;29;20479;-79
2021/03/13 11:11:50;;;;;;;3.00;1.30;;;10.40;93.40;;;;;;4808184;29;20026;-82
2021/03/13 11:14:16;;;;;;;4.00;0.90;;;10.40;92.90;;;;;;4806388;29;20411;-77
2021/03/13 11:16:44;;;;;;;4.03;0.80;;;10.30;92.90;;;;;;4822026;29;20145;-87
2021/03/13 11:19:11;;;;;;;3.40;0.70;;;10.50;93.20;;;;;;4806132;29;20065;-80
2021/03/13 11:21:37;;;;;;;6.70;1.80;;;10.50;93.20;;;;;;4821762;29;20107;-76
2021/03/13 11:24:03;;;;;;;5.05;0.95;;;10.50;93.00;;;;;;4807610;29;20073;-80
2021/03/13 11:26:28;;;;;;;3.30;1.38;;;10.40;92.90;;;;;;4822016;29;20066;-83
2021/03/13 11:28:54;;;;;;;4.18;1.65;;;10.40;92.70;;;;;;4805691;29;20047;-86
2021/03/13 11:31:20;;;;;;;11.15;1.45;;;10.40;92.60;;;;;;4821837;29;20038;-83
2021/03/13 11:33:47;;;;;;;6.65;1.67;;;10.30;92.70;;;;;;4805222;29;20107;-87
2021/03/13 11:36:14;;;;;;;7.60;1.77;;;10.30;92.50;;;;;;4821660;29;20061;-79
2021/03/13 11:38:40;;;;;;;4.72;1.05;;;10.40;92.70;;;;;;4823501;29;20080;-83
2021/03/13 11:41:06;;;;;;;3.42;1.10;;;10.40;92.40;;;;;;4821952;29;20085;-85
2021/03/13 11:43:38;;;;;;;8.13;1.60;;;10.60;92.50;;;;;;4821336;29;20468;-82
2021/03/13 11:46:05;;;;;;;7.85;1.45;;;11.20;92.30;;;;;;4822098;29;20073;-76
2021/03/13 11:48:31;;;;;;;4.43;1.23;;;11.40;91.50;;;;;;4805419;29;20091;-78
2021/03/13 11:50:57;;;;;;;6.25;1.15;;;11.80;90.50;;;;;;4806852;29;20037;-77
2021/03/13 11:53:23;;;;;;;10.07;1.88;;;11.90;90.00;;;;;;4805748;29;20042;-77
2021/03/13 11:55:49;;;;;;;6.40;1.40;;;12.20;89.80;;;;;;4805746;29;20034;-74
2021/03/13 11:58:15;;;;;;;6.43;1.50;;;12.40;88.00;;;;;;4821093;29;20073;-74
2021/03/13 12:00:41;;;;;;;6.90;1.80;;;12.20;86.60;;;;;;4805336;29;20038;-77
2021/03/13 12:03:07;;;;;;;8.45;1.60;;;12.20;87.60;;;;;;4822889;29;20038;-75
2021/03/13 12:05:33;;;;;;;8.18;1.63;;;12.20;87.10;;;;;;4821133;29;20054;-75
2021/03/13 12:07:58;;;;;;;7.18;1.45;;;12.10;85.90;;;;;;4805090;29;20039;-76
2021/03/13 12:10:24;;;;;;;5.40;1.27;;;12.10;86.20;;;;;;4822022;29;20049;-76
2021/03/13 12:12:51;;;;;;;6.05;1.20;;;12.00;86.10;;;;;;4824447;29;20238;-76
2021/03/13 12:15:17;;;;;;;10.23;1.58;;;11.90;86.30;;;;;;4824579;29;20097;-74
2021/03/13 12:17:43;;;;;;;7.40;1.58;;;11.70;86.40;;;;;;4826285;29;20117;-74
2021/03/13 12:20:09;;;;;;;6.22;1.73;;;11.70;86.50;;;;;;4824718;29;20098;-74
2021/03/13 12:22:36;;;;;;;4.50;1.25;;;11.60;87.50;;;;;;4824592;29;20053;-76
2021/03/13 12:25:06;;;;;;;8.73;1.02;;;11.50;85.40;;;;;;4808520;29;20038;-76
2021/03/13 12:27:31;;;;;;;3.67;0.68;;;11.00;84.30;;;;;;4823814;29;20031;-76
2021/03/13 12:29:57;;;;;;;4.30;1.10;;;10.60;85.10;;;;;;4809593;29;20051;-75
2021/03/13 12:32:23;;;;;;;7.18;1.08;;;10.40;85.90;;;;;;4823485;29;20034;-74
2021/03/13 12:34:48;;;;;;;7.55;2.00;;;10.10;88.20;;;;;;4822446;29;20068;-74
2021/03/13 12:37:14;;;;;;;17.52;1.48;;;10.00;90.10;;;;;;4822020;29;20141;-75
2021/03/13 12:39:40;;;;;;;7.55;0.85;;;9.30;91.80;;;;;;4822518;29;20121;-75
2021/03/13 12:42:06;;;;;;;8.13;1.05;;;9.10;92.60;;;;;;4824003;29;20030;-75
2021/03/13 12:44:32;;;;;;;3.83;1.10;;;8.90;93.40;;;;;;4806389;29;20083;-74
2021/03/13 12:46:58;;;;;;;4.50;0.57;;;9.00;93.50;;;;;;4822394;29;20026;-74
2021/03/13 12:49:24;;;;;;;3.97;0.90;;;9.00;93.70;;;;;;4806193;29;20075;-76
2021/03/13 12:51:49;;;;;;;5.10;1.00;;;9.00;93.90;;;;;;4806939;29;20126;-78
2021/03/13 12:54:15;;;;;;;5.80;0.77;;;8.80;94.00;;;;;;4822885;29;20191;-80
2021/03/13 12:56:41;;;;;;;3.60;0.65;;;8.80;94.10;;;;;;4825508;29;20094;-80
2021/03/13 12:59:06;;;;;;;3.90;1.20;;;8.80;94.60;;;;;;4823355;29;20397;-85
2021/03/13 13:01:32;;;;;;;4.95;1.10;;;9.00;94.60;;;;;;4823317;29;20125;-82
2021/03/13 13:04:00;;;;;;;2.60;0.80;;;9.30;94.30;;;;;;4807077;29;20058;-82